createdAt,value
2023-04-30T00:00:46.585Z,26.72
2023-04-30T00:03:50.502Z,26.31
2023-04-30T00:06:54.435Z,24.90
2023-04-30T00:09:58.035Z,24.49
2023-04-30T00:13:01.409Z,23.56
2023-04-30T00:16:07.538Z,22.71
2023-04-30T00:19:11.428Z,21.62
2023-04-30T00:22:16.075Z,20.93
2023-04-30T00:25:19.534Z,20.36
2023-04-30T00:28:23.034Z,20.36
2023-04-30T00:31:26.745Z,19.61
2023-04-30T00:34:30.305Z,19.41
2023-04-30T00:37:33.722Z,18.75
2023-04-30T00:40:37.782Z,19.46
2023-04-30T00:43:41.321Z,20.70
2023-04-30T00:46:44.607Z,22.20
2023-04-30T00:49:48.095Z,23.12
2023-04-30T00:52:51.929Z,23.94
2023-04-30T00:55:56.654Z,24.25
2023-04-30T00:59:03.013Z,24.14
2023-04-30T01:02:06.408Z,24.13
2023-04-30T01:05:09.911Z,24.62
2023-04-30T01:08:14.467Z,25.11
2023-04-30T01:11:36.082Z,25.70
2023-04-30T01:14:45.355Z,26.01
2023-04-30T01:18:11.476Z,26.44
2023-04-30T01:21:20.669Z,26.21
2023-04-30T01:24:42.805Z,26.25
2023-04-30T01:28:11.018Z,26.63
2023-04-30T01:31:17.171Z,26.05
2023-04-30T01:34:20.726Z,25.82
2023-04-30T01:37:35.294Z,25.56
2023-04-30T01:40:46.988Z,25.02
2023-04-30T01:44:10.441Z,25.02
2023-04-30T01:47:49.300Z,25.69
2023-04-30T01:51:06.125Z,26.17
2023-04-30T01:54:53.149Z,26.28
2023-04-30T01:58:01.648Z,26.90
2023-04-30T02:01:05.548Z,26.69
2023-04-30T02:04:09.139Z,26.94
2023-04-30T02:07:14.477Z,27.44
2023-04-30T02:10:19.389Z,27.69
2023-04-30T02:13:25.739Z,27.81
2023-04-30T02:16:29.243Z,28.16
2023-04-30T02:19:34.836Z,28.39
2023-04-30T02:22:39.075Z,27.96
2023-04-30T02:25:42.761Z,28.13
2023-04-30T02:28:49.691Z,27.55
2023-04-30T02:31:53.016Z,27.62
2023-04-30T02:34:59.561Z,27.72
2023-04-30T02:38:05.405Z,27.69
2023-04-30T02:41:08.968Z,27.54
2023-04-30T02:44:17.288Z,27.84
2023-04-30T02:47:20.637Z,28.30
2023-04-30T02:50:24.120Z,28.83
2023-04-30T02:53:27.848Z,29.40
2023-04-30T02:56:31.695Z,29.77
2023-04-30T02:59:35.187Z,29.62
2023-04-30T03:02:38.900Z,29.96
2023-04-30T03:05:42.513Z,30.33
2023-04-30T03:08:53.503Z,30.23
2023-04-30T03:11:57.159Z,30.39
2023-04-30T03:18:43.731Z,28.96
2023-04-30T03:21:59.812Z,29.33
2023-04-30T03:25:11.031Z,28.77
2023-04-30T03:28:16.228Z,28.39
2023-04-30T03:31:23.443Z,27.82
2023-04-30T03:34:33.875Z,27.53
2023-04-30T03:37:40.410Z,27.03
2023-04-30T03:40:46.984Z,26.64
2023-04-30T03:50:58.138Z,25.27
2023-04-30T03:54:51.193Z,25.19
2023-04-30T03:57:56.504Z,24.72
2023-04-30T04:01:00.021Z,24.25
2023-04-30T04:04:03.833Z,24.00
2023-04-30T04:07:10.420Z,24.46
2023-04-30T04:10:13.933Z,25.28
2023-04-30T04:13:17.695Z,25.33
2023-04-30T04:16:21.212Z,25.69
2023-04-30T04:19:25.460Z,25.55
2023-04-30T04:22:28.931Z,25.53
2023-04-30T04:25:34.130Z,25.60
2023-04-30T04:28:38.816Z,25.44
2023-04-30T04:31:43.503Z,24.98
2023-04-30T04:34:48.093Z,25.02
2023-04-30T04:37:53.125Z,24.62
2023-04-30T04:40:58.137Z,24.80
2023-04-30T04:44:02.554Z,24.58
2023-04-30T04:47:06.756Z,24.73
2023-04-30T04:50:10.539Z,24.72
2023-04-30T04:53:14.777Z,25.03
2023-04-30T04:56:18.034Z,24.95
2023-04-30T04:59:21.628Z,24.77
2023-04-30T05:02:25.802Z,25.25
2023-04-30T05:05:29.216Z,25.59
2023-04-30T05:08:33.016Z,25.16
2023-04-30T05:11:37.035Z,24.81
2023-04-30T05:14:40.446Z,24.63
2023-04-30T05:17:44.073Z,24.90
2023-04-30T05:20:47.429Z,25.21
2023-04-30T05:23:50.736Z,25.64
2023-04-30T05:26:54.025Z,25.66
2023-04-30T05:29:57.576Z,26.08
2023-04-30T05:33:01.644Z,26.23
2023-04-30T05:36:05.208Z,26.93
2023-04-30T05:39:09.967Z,27.11
2023-04-30T05:42:13.507Z,27.18
2023-04-30T05:45:18.141Z,27.12
2023-04-30T05:48:22.900Z,26.86
2023-04-30T05:51:26.549Z,26.58
2023-04-30T05:54:33.668Z,26.65
2023-04-30T05:57:39.086Z,26.31
2023-04-30T06:00:42.404Z,26.16
2023-04-30T06:03:46.207Z,25.79
2023-04-30T06:06:51.048Z,26.32
2023-04-30T06:09:58.085Z,26.69
2023-04-30T06:13:04.071Z,26.84
2023-04-30T06:20:01.461Z,26.94
2023-04-30T06:23:10.526Z,27.13
2023-04-30T06:26:18.630Z,26.79
2023-04-30T06:29:22.181Z,26.71
2023-04-30T06:32:25.618Z,26.61
2023-04-30T06:35:34.277Z,26.42
2023-04-30T06:38:53.537Z,26.30
2023-04-30T06:41:57.261Z,26.16
2023-04-30T06:45:07.313Z,26.09
2023-04-30T06:48:11.177Z,25.95
2023-04-30T06:51:14.397Z,26.28
2023-04-30T06:54:23.527Z,26.69
2023-04-30T07:07:57.674Z,26.71
2023-04-30T07:11:02.051Z,27.27
2023-04-30T07:14:06.196Z,27.93
2023-04-30T07:17:13.864Z,28.07
2023-04-30T07:20:18.894Z,28.97
2023-04-30T07:23:22.678Z,29.02
2023-04-30T07:26:29.078Z,28.79
2023-04-30T07:29:32.553Z,28.97
2023-04-30T07:32:37.067Z,28.91
2023-04-30T07:35:40.409Z,28.93
2023-04-30T07:38:43.850Z,28.80
2023-04-30T07:41:49.886Z,28.88
2023-04-30T07:44:53.708Z,29.09
2023-04-30T07:47:57.095Z,29.23
2023-04-30T07:51:01.011Z,29.34
2023-04-30T07:54:07.621Z,28.88
2023-04-30T07:57:11.024Z,28.30
2023-04-30T08:00:17.311Z,28.41
2023-04-30T08:03:21.436Z,28.31
2023-04-30T08:06:25.116Z,28.40
2023-04-30T08:09:28.584Z,28.87
2023-04-30T08:12:32.057Z,28.79
2023-04-30T08:15:35.738Z,29.31
2023-04-30T08:18:45.554Z,29.06
2023-04-30T08:22:10.371Z,29.12
2023-04-30T08:25:13.955Z,29.41
2023-04-30T08:28:22.759Z,29.22
2023-04-30T08:31:28.958Z,28.75
2023-04-30T08:34:42.195Z,28.40
2023-04-30T08:38:10.863Z,28.18
2023-04-30T08:41:15.733Z,28.25
2023-04-30T08:44:28.219Z,27.99
2023-04-30T08:47:47.268Z,27.96
2023-04-30T08:50:54.045Z,28.27
2023-04-30T08:53:58.760Z,28.59
2023-04-30T08:57:02.311Z,28.45
2023-04-30T09:00:08.245Z,28.58
2023-04-30T09:03:12.062Z,28.75
2023-04-30T09:06:24.803Z,29.05
2023-04-30T09:09:34.323Z,29.15
2023-04-30T09:12:37.902Z,29.10
2023-04-30T09:15:46.385Z,29.29
2023-04-30T09:18:50.744Z,29.29
2023-04-30T09:21:57.310Z,29.47
2023-04-30T09:25:03.753Z,29.61
2023-04-30T09:28:17.347Z,29.59
2023-04-30T09:31:26.880Z,29.97
2023-04-30T09:34:36.714Z,29.93
2023-04-30T09:37:40.385Z,29.99
2023-04-30T09:40:44.324Z,30.08
2023-04-30T09:44:30.067Z,30.36
2023-04-30T09:47:34.430Z,30.17
2023-04-30T09:50:43.434Z,30.38
2023-04-30T09:53:50.006Z,30.38
2023-04-30T09:56:56.543Z,30.44
2023-04-30T10:00:01.471Z,30.34
2023-04-30T10:03:16.073Z,30.29
2023-04-30T10:06:37.630Z,30.54
2023-04-30T10:09:49.056Z,30.72
2023-04-30T10:13:02.533Z,30.78
2023-04-30T10:16:13.056Z,30.92
2023-04-30T10:19:24.687Z,31.20
2023-04-30T10:22:29.586Z,31.26
2023-04-30T10:25:33.617Z,31.50
2023-04-30T10:28:37.327Z,31.50
2023-04-30T10:31:42.607Z,31.68
2023-04-30T10:35:11.998Z,31.80
2023-04-30T10:38:27.326Z,31.93
2023-04-30T10:41:32.019Z,32.14
2023-04-30T10:44:37.327Z,32.37
2023-04-30T10:47:46.253Z,32.32
2023-04-30T10:50:52.983Z,32.51
2023-04-30T10:53:57.218Z,32.64
2023-04-30T10:57:14.792Z,32.64
2023-04-30T11:00:25.734Z,32.99
2023-04-30T11:03:33.545Z,32.73
2023-04-30T11:06:57.099Z,33.04
2023-04-30T11:10:02.689Z,33.32
2023-04-30T11:13:11.304Z,33.21
2023-04-30T11:16:18.062Z,33.41
2023-04-30T11:19:25.758Z,34.15
2023-04-30T11:22:36.877Z,34.08
2023-04-30T11:25:47.635Z,33.94
2023-04-30T11:35:25.422Z,34.40
2023-04-30T11:41:50.539Z,34.49
2023-04-30T11:44:56.767Z,34.24
2023-04-30T11:48:00.642Z,34.64
2023-04-30T11:51:06.023Z,34.35
2023-04-30T11:54:11.065Z,34.42
2023-04-30T11:57:17.353Z,34.93
2023-04-30T12:00:22.492Z,34.74
2023-04-30T12:03:51.154Z,34.52
2023-04-30T12:07:44.091Z,34.86
2023-04-30T12:10:47.478Z,34.60
2023-04-30T12:13:54.199Z,35.01
2023-04-30T12:16:58.008Z,34.79
2023-04-30T12:20:01.588Z,34.74
2023-04-30T12:23:08.210Z,35.04
2023-04-30T12:26:36.632Z,34.83
2023-04-30T12:29:46.301Z,34.89
2023-04-30T12:32:54.211Z,34.91
2023-04-30T12:36:00.140Z,34.91
2023-04-30T12:39:23.590Z,34.80
2023-04-30T12:42:52.282Z,34.64
2023-04-30T12:45:57.140Z,34.65
2023-04-30T12:49:01.349Z,34.91
2023-04-30T12:52:15.937Z,34.83
2023-04-30T12:55:22.647Z,34.58
2023-04-30T12:58:32.350Z,34.78
2023-04-30T13:01:46.090Z,34.77
2023-04-30T13:04:51.889Z,34.81
2023-04-30T13:08:04.401Z,35.05
2023-04-30T13:11:09.751Z,35.07
2023-04-30T13:14:14.075Z,35.11
2023-04-30T13:17:17.433Z,35.13
2023-04-30T13:20:21.010Z,35.37
2023-04-30T13:23:24.460Z,35.45
2023-04-30T13:26:28.417Z,35.51
2023-04-30T13:29:32.576Z,35.65
2023-04-30T13:32:36.122Z,35.91
2023-04-30T13:35:39.981Z,36.10
2023-04-30T13:38:44.287Z,35.89
2023-04-30T13:41:50.432Z,36.02
2023-04-30T13:44:54.026Z,36.14
2023-04-30T13:47:57.533Z,35.95
2023-04-30T13:51:01.836Z,36.06
2023-04-30T13:54:05.207Z,36.18
2023-04-30T13:57:08.620Z,36.32
2023-04-30T14:00:12.949Z,36.46
2023-04-30T14:03:16.824Z,36.48
2023-04-30T14:06:20.242Z,36.71
2023-04-30T14:09:24.169Z,36.95
2023-04-30T14:12:27.541Z,36.49
2023-04-30T14:15:35.330Z,36.59
2023-04-30T14:18:38.727Z,36.80
2023-04-30T14:21:42.166Z,36.83
2023-04-30T14:24:48.627Z,37.05
2023-04-30T14:27:52.015Z,37.01
2023-04-30T14:30:57.185Z,37.53
2023-04-30T14:34:00.764Z,37.68
2023-04-30T14:37:04.612Z,38.13
2023-04-30T14:40:08.971Z,38.24
2023-04-30T14:43:28.593Z,38.45
2023-04-30T14:46:33.978Z,38.74
2023-04-30T14:49:37.372Z,38.78
2023-04-30T14:52:43.777Z,38.79
2023-04-30T14:55:47.079Z,38.76
2023-04-30T14:58:50.434Z,38.82
2023-04-30T15:01:53.784Z,38.97
2023-04-30T15:04:57.243Z,38.70
2023-04-30T15:08:02.847Z,38.70
2023-04-30T15:11:09.417Z,39.13
2023-04-30T15:14:12.791Z,39.37
2023-04-30T15:17:18.671Z,39.47
2023-04-30T15:20:22.082Z,39.55
2023-04-30T15:23:25.636Z,39.68
2023-04-30T15:26:33.702Z,39.88
2023-04-30T15:29:41.278Z,40.22
2023-04-30T15:32:44.735Z,40.74
2023-04-30T15:35:51.147Z,40.57
2023-04-30T15:38:57.565Z,40.61
2023-04-30T15:42:04.255Z,40.78
2023-04-30T15:45:09.508Z,41.09
2023-04-30T15:48:12.991Z,41.25
2023-04-30T15:51:16.622Z,41.25
2023-04-30T15:54:22.684Z,41.39
2023-04-30T15:57:26.406Z,41.59
2023-04-30T16:00:33.451Z,41.74
2023-04-30T16:03:38.200Z,41.52
2023-04-30T16:06:41.857Z,41.59
2023-04-30T16:09:46.826Z,41.63
2023-04-30T16:12:52.699Z,41.63
2023-04-30T16:15:56.318Z,41.60
2023-04-30T16:18:59.701Z,41.63
2023-04-30T16:22:03.565Z,41.73
2023-04-30T16:25:09.091Z,41.65
2023-04-30T16:28:12.384Z,41.70
2023-04-30T16:31:16.305Z,41.70
2023-04-30T16:34:19.871Z,41.97
2023-04-30T16:37:27.146Z,41.81
2023-04-30T16:40:31.678Z,41.83
2023-04-30T16:43:35.781Z,41.57
2023-04-30T16:46:44.009Z,41.44
2023-04-30T16:49:47.336Z,41.43
2023-04-30T16:52:50.809Z,41.49
2023-04-30T16:55:57.095Z,41.61
2023-04-30T16:59:02.811Z,41.43
2023-04-30T17:02:09.928Z,41.58
2023-04-30T17:05:13.019Z,41.82
2023-04-30T17:08:20.797Z,41.77
2023-04-30T17:11:25.913Z,41.77
2023-04-30T17:14:29.358Z,42.07
2023-04-30T17:17:33.568Z,42.27
2023-04-30T17:20:37.193Z,42.60
2023-04-30T17:23:41.097Z,42.79
2023-04-30T17:26:44.491Z,43.22
2023-04-30T17:29:50.725Z,43.25
2023-04-30T17:32:54.081Z,43.53
2023-04-30T17:35:57.339Z,43.85
2023-04-30T17:39:03.477Z,44.00
2023-04-30T17:42:07.069Z,44.09
2023-04-30T17:45:10.711Z,44.49
2023-04-30T17:48:14.180Z,44.72
2023-04-30T17:51:19.021Z,44.82
2023-04-30T17:54:22.677Z,44.52
2023-04-30T17:57:25.997Z,44.59
2023-04-30T18:00:29.460Z,44.47
2023-04-30T18:03:33.230Z,44.51
2023-04-30T18:06:39.806Z,44.45
2023-04-30T18:09:45.696Z,44.50
2023-04-30T18:12:50.427Z,44.14
2023-04-30T18:15:53.860Z,44.18
2023-04-30T18:18:57.597Z,44.22
2023-04-30T18:22:01.220Z,44.19
2023-04-30T18:25:04.629Z,44.33
2023-04-30T18:28:10.905Z,44.48
2023-04-30T18:31:14.210Z,44.45
2023-04-30T18:34:17.748Z,44.53
2023-04-30T18:37:22.426Z,44.78
2023-04-30T18:40:26.173Z,45.02
2023-04-30T18:43:29.730Z,45.11
2023-04-30T18:46:33.081Z,45.33
2023-04-30T18:49:37.654Z,45.49
2023-04-30T18:52:41.617Z,45.67
2023-04-30T18:55:50.329Z,45.85
2023-04-30T18:58:53.672Z,46.06
2023-04-30T19:01:57.252Z,46.17
2023-04-30T19:05:00.571Z,46.25
2023-04-30T19:08:04.256Z,46.58
2023-04-30T19:11:07.705Z,46.57
2023-04-30T19:14:11.021Z,46.50
2023-04-30T19:17:14.934Z,46.37
2023-04-30T19:20:18.558Z,46.27
2023-04-30T19:23:21.792Z,46.40
2023-04-30T19:26:26.539Z,46.31
2023-04-30T19:29:29.998Z,46.31
2023-04-30T19:32:33.271Z,46.36
2023-04-30T19:35:37.482Z,46.35
2023-04-30T19:38:42.005Z,46.26
2023-04-30T19:41:45.268Z,46.16
2023-04-30T19:44:48.880Z,46.02
2023-04-30T19:47:52.251Z,46.10
2023-04-30T19:50:55.678Z,46.03
2023-04-30T19:54:00.027Z,46.03
2023-04-30T19:57:03.462Z,45.96
2023-04-30T20:00:07.320Z,46.06
2023-04-30T20:03:11.055Z,45.99
2023-04-30T20:06:14.423Z,45.80
2023-04-30T20:09:17.833Z,45.73
2023-04-30T20:12:21.191Z,45.63
2023-04-30T20:15:25.478Z,45.53
2023-04-30T20:18:28.733Z,45.56
2023-04-30T20:21:32.734Z,45.49
2023-04-30T20:24:36.027Z,45.50
2023-04-30T20:27:39.615Z,45.43
2023-04-30T20:30:43.825Z,45.43
2023-04-30T20:33:47.766Z,45.40
2023-04-30T20:36:51.272Z,45.48
2023-04-30T20:39:54.687Z,45.46
2023-04-30T20:42:58.278Z,45.48
2023-04-30T20:46:01.670Z,45.40
2023-04-30T20:49:05.838Z,45.30
2023-04-30T20:52:09.380Z,45.12
2023-04-30T20:55:12.867Z,45.00
2023-04-30T20:58:16.727Z,44.85
2023-04-30T21:01:20.065Z,44.66
2023-04-30T21:04:24.009Z,44.47
2023-04-30T21:07:28.191Z,44.36
2023-04-30T21:10:37.089Z,44.18
2023-04-30T21:13:42.423Z,44.03
2023-04-30T21:16:45.937Z,43.91
2023-04-30T21:19:49.383Z,43.91
2023-04-30T21:22:55.671Z,43.93
2023-04-30T21:25:59.085Z,43.74
2023-04-30T21:29:03.585Z,43.69
2023-04-30T21:32:06.864Z,43.74
2023-04-30T21:35:10.468Z,43.56
2023-04-30T21:38:14.451Z,43.36
2023-04-30T21:41:19.212Z,43.18
2023-04-30T21:44:22.624Z,43.01
2023-04-30T21:47:26.064Z,42.83
2023-04-30T21:50:29.822Z,42.64
2023-04-30T21:53:33.020Z,42.48
2023-04-30T21:56:36.337Z,42.14
2023-04-30T21:59:39.604Z,41.74
2023-04-30T22:02:43.683Z,41.48
2023-04-30T22:05:46.980Z,41.12
2023-04-30T22:08:50.312Z,40.93
2023-04-30T22:11:54.422Z,40.55
2023-04-30T22:14:57.886Z,40.24
2023-04-30T22:18:01.392Z,40.08
2023-04-30T22:21:04.713Z,39.70
2023-04-30T22:24:08.328Z,39.33
2023-04-30T22:27:12.025Z,39.11
2023-04-30T22:30:15.707Z,38.79
2023-04-30T22:33:20.377Z,38.66
2023-04-30T22:36:25.328Z,38.42
2023-04-30T22:39:28.801Z,38.50
2023-04-30T22:42:32.626Z,38.42
2023-04-30T22:45:38.824Z,38.43
2023-04-30T22:48:43.324Z,38.10
2023-04-30T22:51:47.908Z,38.27
2023-04-30T22:54:51.470Z,38.00
2023-04-30T22:57:54.840Z,37.49
2023-04-30T23:00:58.345Z,37.63
2023-04-30T23:04:02.021Z,37.81
2023-04-30T23:07:05.279Z,37.54
2023-04-30T23:10:09.003Z,36.86
2023-04-30T23:13:12.560Z,36.72
2023-04-30T23:16:15.939Z,36.40
2023-04-30T23:19:19.328Z,36.40
2023-04-30T23:22:22.827Z,36.10
2023-04-30T23:25:26.279Z,35.91
2023-04-30T23:28:29.692Z,35.37
2023-04-30T23:31:33.121Z,35.52
2023-04-30T23:34:36.451Z,34.79
2023-04-30T23:37:39.772Z,33.95
2023-04-30T23:40:43.716Z,33.32
2023-04-30T23:43:47.025Z,32.91
2023-04-30T23:46:51.625Z,32.58
2023-04-30T23:49:55.490Z,32.44
2023-04-30T23:52:58.960Z,32.43
2023-04-30T23:56:02.558Z,31.82
2023-04-30T23:59:05.861Z,31.43
